Airfield :
LOGIN :

Register | Disclaimer

   EN    FR    IT 

 










Legend :    VFR   Marginal VFR   IFR   Intensive IFR   Very Intensive IFR
Visi :
Ceiling :
>= 8 km
>= 3000ft
5 to 8 km
1000 to 3000 ft
1500m to 5 km
500 to 1000 ft
800 to 1500m
200 to 500 ft
< 800m
< 200 ft
Symbols :   Thunderstorms  Fog  Heavy snow  Heavy precipitations  Wind > 20 kt
SIGMETs :     Misc.  Thunderstorms  Icing  Turbulence  Mountain Waves  Volcanic Ashes







- Airport Elevation : 290 ft
- IATA code : LAI
- Download approach charts


LFRO - Lannion

CURRENT METAR :
  • 220600Z AUTO 23020KT 9999 -RA OVC011 13/11 Q1010 TEMPO 24025G43KT 2000 RA BR OVC002

EXPIRED METARs :
  • 220530Z AUTO 24021G31KT 9999 -RA OVC007 13/12 Q1011 TEMPO 24025G43KT 2000 RA BR OVC002
  • 220500Z AUTO 23018KT 6000 DZ OVC006 12/12 Q1011
  • 220430Z AUTO 23019KT 3600 -RA BR OVC007 12/12 Q1012
  • 220400Z AUTO 23018KT 5000 DZ BR OVC005 13/12 Q1012
  • 220330Z AUTO 24019KT 5000 DZ BR OVC005 13/12 Q1012

TAF TAF LFRO
Valid from the 22 at 06:00 until the 23 at 06:00 UTC


220500Z 2206/2306 23015G25KT 6000 DZ OVC005
TEMPO 2206/2210 24025G43KT 2000 RA BR OVC002
BECMG 2210/2212 BKN016
BECMG 2212/2216 24012KT SCT020
BECMG 2221/2223 BKN014
BECMG 2221/2224 5000 RA OVC015
BECMG 2300/2304 20015G25KT
No reported NOTAMs for that airfield.
1 SIGMET reported for the Brest FIR (LFRR) :
 
Severe turbulence
LFRR SIGMET 1 VALID 220400/220800 LFPW
LFRR BREST FIR/UIR SEV TURB FCST WI N4630 W00800 - N4900 W00800 - N4915 W00700 - N4845 W00345 - N4700 W00315 - N4630 W00800 SFC/FL060 STNR INTSF=



MET'MAP, your aeronautical weather chart ! - Copyright ORBIFLY December 2007 - Disclaimer

ORBIFLY MET'MAP TEAM :

Programming & Development : Alexandra Zaïnal
Concept & Development : Baudouin d'Aumeries
Co-Development & Prog : Marc-Olivier Méhu
Technical & hardware support : Manuel Goepfert

Contact : metmap@orbifly.com




SOURCES & CREDITS :

   NOAA